Live Oak, Florida
Current Conditions -  °F | °C
As of 12:15 PM on Saturday 25 Oct 2014 (Local Time) from K24J Reporting Station
Clear Clear  
Wind Chill: 75°   Ceiling: Unl
Heat Index: 75°   Visibility: 1.5mi
Dew Point: 52°   Wind: 0mph
Humidity: 44%   Direction: NA
Pressure: 30.06"   Gusts: NA
Location:  30.3°N, 82.98°W
Report Text: K24J 251615Z AUTO 00000KT 1 1/2SM CLR 24/11 A3006 RMK AO1
Loading
Personal Weather Stations






























Interactive Weather Map
Tropical Storm Tracking
New forecast layout! Learn more

10-Day Weather Forecast

Advertisements
Track Severe Weather on mobile